createdAt,value
2023-02-06T00:00:44.081Z,99140.13
2023-02-06T00:02:46.773Z,99131.50
2023-02-06T00:04:49.369Z,99142.63
2023-02-06T00:06:52.039Z,99138.28
2023-02-06T00:08:54.732Z,99133.94
2023-02-06T00:10:57.331Z,99138.28
2023-02-06T00:12:59.966Z,99131.34
2023-02-06T00:15:04.033Z,99140.88
2023-02-06T00:17:06.644Z,99135.69
2023-02-06T00:19:09.230Z,99143.34
2023-02-06T00:21:11.932Z,99136.50
2023-02-06T00:23:14.525Z,99140.78
2023-02-06T00:25:17.178Z,99136.50
2023-02-06T00:27:19.754Z,99135.63
2023-02-06T00:29:22.356Z,99144.19
2023-02-06T00:31:26.372Z,99146.78
2023-02-06T00:33:28.924Z,99142.50
2023-02-06T00:35:31.523Z,99151.91
2023-02-06T00:37:34.089Z,99151.06
2023-02-06T00:39:37.031Z,99156.25
2023-02-06T00:41:39.608Z,99146.78
2023-02-06T00:43:43.437Z,99155.38
2023-02-06T00:45:45.984Z,99155.44
2023-02-06T00:47:49.973Z,99145.13
2023-02-06T00:49:52.514Z,99143.44
2023-02-06T00:51:55.168Z,99146.00
2023-02-06T00:53:57.766Z,99144.25
2023-02-06T00:56:00.490Z,99142.50
2023-02-06T00:58:03.069Z,99135.69
2023-02-06T01:00:07.468Z,99124.50
2023-02-06T01:02:10.108Z,99134.81
2023-02-06T01:04:14.063Z,99136.47
2023-02-06T01:06:16.621Z,99136.47
2023-02-06T01:08:19.149Z,99139.03
2023-02-06T01:10:21.699Z,99138.16
2023-02-06T01:12:24.378Z,99145.06
2023-02-06T01:14:26.956Z,99144.19
2023-02-06T01:16:29.641Z,99144.19
2023-02-06T01:18:32.326Z,99145.84
2023-02-06T01:20:36.514Z,99147.69
2023-02-06T01:22:39.242Z,99145.09
2023-02-06T01:24:41.814Z,99139.91
2023-02-06T01:26:44.365Z,99131.31
2023-02-06T01:28:48.840Z,99131.31
2023-02-06T01:30:51.545Z,99125.31
2023-02-06T01:32:54.089Z,99135.59
2023-02-06T01:34:59.271Z,99130.41
2023-02-06T01:37:03.430Z,99132.97
2023-02-06T01:39:06.697Z,99130.38
2023-02-06T01:41:10.500Z,99137.34
2023-02-06T01:43:19.060Z,99141.56
2023-02-06T01:45:40.750Z,99133.81
2023-02-06T01:47:43.345Z,99136.44
2023-02-06T01:49:50.591Z,99136.41
2023-02-06T01:51:57.043Z,99134.63
2023-02-06T01:54:04.774Z,99127.81
2023-02-06T01:56:09.122Z,99124.38
2023-02-06T01:58:15.525Z,99133.03
2023-02-06T02:00:19.341Z,99129.47
2023-02-06T02:02:23.620Z,99126.09
2023-02-06T02:04:29.257Z,99118.41
2023-02-06T02:06:32.239Z,99122.66
2023-02-06T02:08:39.201Z,99116.69
2023-02-06T02:10:43.250Z,99115.78
2023-02-06T02:12:45.812Z,99112.34
2023-02-06T02:14:50.948Z,99115.78
2023-02-06T02:17:07.461Z,99109.75
2023-02-06T02:19:45.455Z,99114.03
2023-02-06T02:22:26.009Z,99130.34
2023-02-06T02:24:54.097Z,99128.66
2023-02-06T02:27:16.513Z,99123.50
2023-02-06T02:29:47.016Z,99128.69
2023-02-06T02:32:27.506Z,99130.44
2023-02-06T02:35:29.928Z,99120.13
2023-02-06T02:37:44.499Z,99121.00
2023-02-06T02:39:56.275Z,99121.88
2023-02-06T02:42:00.921Z,99125.16
2023-02-06T02:44:08.846Z,99124.34
2023-02-06T02:46:18.814Z,99126.09
2023-02-06T02:48:25.525Z,99126.06
2023-02-06T02:50:29.468Z,99120.06
2023-02-06T02:52:32.052Z,99126.91
2023-02-06T02:54:35.956Z,99122.66
2023-02-06T02:56:39.659Z,99120.00
2023-02-06T02:58:42.926Z,99120.84
2023-02-06T03:00:49.443Z,99126.06
2023-02-06T03:02:53.606Z,99122.56
2023-02-06T03:04:59.913Z,99119.94
2023-02-06T03:07:11.502Z,99121.66
2023-02-06T03:09:23.202Z,99125.09
2023-02-06T03:11:28.145Z,99122.56
2023-02-06T03:13:35.486Z,99128.53
2023-02-06T03:15:48.856Z,99127.78
2023-02-06T03:17:57.347Z,99125.19
2023-02-06T03:20:03.467Z,99120.09
2023-02-06T03:22:06.748Z,99108.09
2023-02-06T03:24:14.818Z,99114.00
2023-02-06T03:26:21.386Z,99122.63
2023-02-06T03:28:29.600Z,99115.75
2023-02-06T03:30:33.926Z,99115.69
2023-02-06T03:32:42.342Z,99109.66
2023-02-06T03:34:52.915Z,99105.44
2023-02-06T03:36:55.871Z,99110.66
2023-02-06T03:38:59.033Z,99102.81
2023-02-06T03:41:02.982Z,99107.91
2023-02-06T03:43:06.858Z,99107.88
2023-02-06T03:45:16.852Z,99120.84
2023-02-06T03:47:22.018Z,99110.50
2023-02-06T03:49:28.901Z,99108.81
2023-02-06T03:51:36.190Z,99111.44
2023-02-06T03:53:40.520Z,99108.81
2023-02-06T03:55:45.618Z,99106.19
2023-02-06T03:57:52.486Z,99115.66
2023-02-06T03:59:55.057Z,99106.22
2023-02-06T04:02:02.622Z,99113.94
2023-02-06T04:04:05.720Z,99110.47
2023-02-06T04:06:08.623Z,99104.41
2023-02-06T04:08:11.246Z,99115.63
2023-02-06T04:10:13.897Z,99107.81
2023-02-06T04:12:17.017Z,99113.78
2023-02-06T04:14:19.727Z,99111.19
2023-02-06T04:16:22.459Z,99108.59
2023-02-06T04:18:27.633Z,99109.50
2023-02-06T04:20:30.615Z,99111.19
2023-02-06T04:22:33.383Z,99104.34
2023-02-06T04:24:36.791Z,99110.34
2023-02-06T04:26:39.349Z,99108.69
2023-02-06T04:28:41.925Z,99109.66
2023-02-06T04:30:44.556Z,99108.72
2023-02-06T04:32:47.209Z,99104.47
2023-02-06T04:34:51.251Z,99108.81
2023-02-06T04:36:53.821Z,99105.31
2023-02-06T04:38:56.382Z,99104.41
2023-02-06T04:41:03.821Z,99105.34
2023-02-06T04:43:06.404Z,99106.19
2023-02-06T04:45:10.320Z,99113.84
2023-02-06T04:47:12.919Z,99107.91
2023-02-06T04:49:16.323Z,99109.53
2023-02-06T04:51:23.258Z,99112.22
2023-02-06T04:53:25.824Z,99111.34
2023-02-06T04:55:28.748Z,99114.69
2023-02-06T04:57:31.359Z,99112.09
2023-02-06T04:59:33.951Z,99113.78
2023-02-06T05:01:36.589Z,99107.78
2023-02-06T05:03:39.191Z,99106.06
2023-02-06T05:05:41.719Z,99106.06
2023-02-06T05:07:45.609Z,99100.03
2023-02-06T05:09:48.149Z,99099.22
2023-02-06T05:11:50.798Z,99106.97
2023-02-06T05:13:53.698Z,99105.22
2023-02-06T05:15:58.023Z,99111.22
2023-02-06T05:18:00.658Z,99105.22
2023-02-06T05:20:03.832Z,99100.88
2023-02-06T05:22:06.381Z,99100.97
2023-02-06T05:24:10.372Z,99104.34
2023-02-06T05:26:12.993Z,99115.56
2023-02-06T05:28:15.565Z,99119.00
2023-02-06T05:30:19.099Z,99119.84
2023-02-06T05:32:21.718Z,99115.56
2023-02-06T05:34:24.425Z,99129.22
2023-02-06T05:36:26.968Z,99123.25
2023-02-06T05:38:29.575Z,99119.81
2023-02-06T05:40:33.546Z,99108.59
2023-02-06T05:42:36.341Z,99120.75
2023-02-06T05:44:38.904Z,99115.53
2023-02-06T05:46:41.499Z,99110.25
2023-02-06T05:48:44.056Z,99122.34
2023-02-06T05:50:49.230Z,99123.22
2023-02-06T05:52:51.800Z,99120.59
2023-02-06T05:54:54.365Z,99119.84
2023-02-06T05:56:58.276Z,99114.69
2023-02-06T05:59:00.849Z,99114.66
2023-02-06T06:01:03.403Z,99118.06
2023-02-06T06:03:05.975Z,99125.72
2023-02-06T06:05:09.162Z,99120.56
2023-02-06T06:07:11.770Z,99113.69
2023-02-06T06:09:14.355Z,99111.09
2023-02-06T06:11:16.955Z,99105.13
2023-02-06T06:13:20.925Z,99105.97
2023-02-06T06:15:23.612Z,99108.56
2023-02-06T06:17:26.206Z,99104.28
2023-02-06T06:19:28.793Z,99099.13
2023-02-06T06:21:31.368Z,99096.59
2023-02-06T06:23:34.040Z,99099.97
2023-02-06T06:25:37.484Z,99118.88
2023-02-06T06:27:40.716Z,99118.91
2023-02-06T06:29:44.670Z,99120.59
2023-02-06T06:31:47.353Z,99117.97
2023-02-06T06:33:49.975Z,99117.13
2023-02-06T06:35:52.563Z,99130.03
2023-02-06T06:37:55.328Z,99134.28
2023-02-06T06:39:57.976Z,99142.91
2023-02-06T06:42:00.599Z,99152.44
2023-02-06T06:44:03.130Z,99140.41
2023-02-06T06:46:07.206Z,99142.09
2023-02-06T06:48:09.930Z,99130.06
2023-02-06T06:50:12.530Z,99136.91
2023-02-06T06:52:24.487Z,99139.41
2023-02-06T06:54:28.046Z,99133.38
2023-02-06T06:56:30.633Z,99132.50
2023-02-06T06:58:33.492Z,99148.06
2023-02-06T07:00:37.004Z,99138.56
2023-02-06T07:02:42.459Z,99137.63
2023-02-06T07:04:45.172Z,99128.22
2023-02-06T07:06:50.105Z,99138.53
2023-02-06T07:08:52.826Z,99139.34
2023-02-06T07:10:55.409Z,99138.50
2023-02-06T07:12:58.029Z,99136.72
2023-02-06T07:15:00.573Z,99133.28
2023-02-06T07:17:03.179Z,99129.78
2023-02-06T07:19:08.292Z,99139.22
2023-02-06T07:21:11.486Z,99138.47
2023-02-06T07:23:14.056Z,99142.69
2023-02-06T07:25:17.075Z,99151.25
2023-02-06T07:27:20.079Z,99151.31
2023-02-06T07:29:22.618Z,99149.53
2023-02-06T07:31:25.251Z,99152.13
2023-02-06T07:33:30.784Z,99149.53
2023-02-06T07:35:34.934Z,99151.34
2023-02-06T07:37:37.549Z,99151.25
2023-02-06T07:39:40.172Z,99153.09
2023-02-06T07:41:42.933Z,99154.75
2023-02-06T07:43:45.576Z,99151.41
2023-02-06T07:45:48.214Z,99151.41
2023-02-06T07:47:51.973Z,99141.09
2023-02-06T07:49:54.612Z,99141.16
2023-02-06T07:51:58.482Z,99141.16
2023-02-06T07:54:01.088Z,99136.84
2023-02-06T07:56:03.862Z,99139.41
2023-02-06T07:58:06.579Z,99137.72
2023-02-06T08:00:10.311Z,99138.59
2023-02-06T08:02:13.177Z,99149.78
2023-02-06T08:04:15.868Z,99144.66
2023-02-06T08:06:19.398Z,99143.84
2023-02-06T08:08:23.274Z,99140.44
2023-02-06T08:10:26.304Z,99143.09
2023-02-06T08:12:30.818Z,99149.13
2023-02-06T08:14:33.344Z,99148.22
2023-02-06T08:16:35.947Z,99146.63
2023-02-06T08:18:39.400Z,99144.84
2023-02-06T08:20:41.973Z,99137.13
2023-02-06T08:22:44.552Z,99140.44
2023-02-06T08:24:48.637Z,99135.38
2023-02-06T08:26:51.300Z,99127.63
2023-02-06T08:28:58.064Z,99132.00
2023-02-06T08:31:00.773Z,99127.72
2023-02-06T08:33:03.384Z,99124.19
2023-02-06T08:35:06.618Z,99123.34
2023-02-06T08:37:09.306Z,99122.59
2023-02-06T08:39:14.063Z,99129.50
2023-02-06T08:41:22.035Z,99133.84
2023-02-06T08:43:24.699Z,99133.72
2023-02-06T08:45:27.315Z,99138.00
2023-02-06T08:47:29.876Z,99136.31
2023-02-06T08:49:32.435Z,99136.31
2023-02-06T08:51:36.766Z,99140.63
2023-02-06T08:53:40.042Z,99145.75
2023-02-06T08:55:42.706Z,99144.94
2023-02-06T08:57:46.612Z,99145.06
2023-02-06T08:59:49.615Z,99136.41
2023-02-06T09:01:52.240Z,99138.97
2023-02-06T09:03:55.925Z,99140.59
2023-02-06T09:06:09.612Z,99142.28
2023-02-06T09:08:12.692Z,99140.56
2023-02-06T09:10:26.762Z,99136.25
2023-02-06T09:12:30.192Z,99130.34
2023-02-06T09:14:35.387Z,99130.25
2023-02-06T09:16:38.486Z,99128.66
2023-02-06T09:18:41.443Z,99131.16
2023-02-06T09:20:46.042Z,99132.94
2023-02-06T09:22:48.610Z,99128.72
2023-02-06T09:24:51.288Z,99124.47
2023-02-06T09:26:59.899Z,99131.41
2023-02-06T09:29:05.512Z,99124.47
2023-02-06T09:31:10.693Z,99119.34
2023-02-06T09:33:13.401Z,99120.06
2023-02-06T09:35:16.288Z,99121.88
2023-02-06T09:37:18.844Z,99128.66
2023-02-06T09:39:21.447Z,99120.91
2023-02-06T09:41:31.033Z,99125.97
2023-02-06T09:43:36.212Z,99119.09
2023-02-06T09:45:40.348Z,99120.91
2023-02-06T09:47:48.568Z,99126.00
2023-02-06T09:49:54.845Z,99124.25
2023-02-06T09:52:08.214Z,99123.31
2023-02-06T09:54:23.936Z,99126.78
2023-02-06T09:56:35.531Z,99125.81
2023-02-06T09:58:44.240Z,99116.38
2023-02-06T10:00:53.224Z,99115.53
2023-02-06T10:03:13.508Z,99104.38
2023-02-06T10:05:24.500Z,99098.38
2023-02-06T10:07:43.537Z,99095.75
2023-02-06T10:09:50.694Z,99086.28
2023-02-06T10:11:56.924Z,99091.50
2023-02-06T10:14:02.979Z,99089.78
2023-02-06T10:16:07.758Z,99083.78
2023-02-06T10:18:16.530Z,99090.66
2023-02-06T10:20:22.861Z,99093.16
2023-02-06T10:22:29.547Z,99091.47
2023-02-06T10:24:38.016Z,99078.69
2023-02-06T10:26:41.561Z,99079.56
2023-02-06T10:28:48.890Z,99077.84
2023-02-06T10:31:10.605Z,99080.34
2023-02-06T10:33:25.568Z,99076.94
2023-02-06T10:35:36.327Z,99079.53
2023-02-06T10:38:04.798Z,99078.72
2023-02-06T10:40:30.578Z,99071.94
2023-02-06T10:42:51.122Z,99068.41
2023-02-06T10:45:18.445Z,99071.06
2023-02-06T10:47:32.269Z,99069.22
2023-02-06T10:49:41.833Z,99068.41
2023-02-06T10:51:48.447Z,99059.75
2023-02-06T10:53:53.221Z,99060.56
2023-02-06T10:55:58.236Z,99052.00
2023-02-06T10:58:08.025Z,99058.00
2023-02-06T11:00:18.438Z,99056.22
2023-02-06T11:02:25.122Z,99056.13
2023-02-06T11:04:34.324Z,99053.63
2023-02-06T11:06:40.241Z,99052.72
2023-02-06T11:08:46.002Z,99046.75
2023-02-06T11:10:49.432Z,99052.72
2023-02-06T11:13:00.053Z,99054.44
2023-02-06T11:15:07.636Z,99051.88
2023-02-06T11:17:15.207Z,99051.06
2023-02-06T11:19:20.898Z,99047.63
2023-02-06T11:21:53.660Z,99049.28
2023-02-06T11:24:10.703Z,99043.31
2023-02-06T11:26:15.725Z,99050.19
2023-02-06T11:28:20.384Z,99053.53
2023-02-06T11:30:30.559Z,99045.88
2023-02-06T11:32:37.606Z,99026.94
2023-02-06T11:34:51.842Z,99031.28
2023-02-06T11:36:58.552Z,99032.13
2023-02-06T11:39:03.018Z,99026.94
2023-02-06T11:41:16.629Z,99026.94
2023-02-06T11:43:22.479Z,99035.47
2023-02-06T11:45:28.618Z,99029.50
2023-02-06T11:47:33.083Z,99020.13
2023-02-06T11:49:35.640Z,99029.53
2023-02-06T11:51:53.762Z,99020.91
2023-02-06T11:53:59.860Z,99017.41
2023-02-06T11:56:06.890Z,99024.31
2023-02-06T11:58:22.403Z,99018.31
2023-02-06T12:00:25.339Z,99020.81
2023-02-06T12:02:31.024Z,99016.56
2023-02-06T12:04:37.870Z,99018.16
2023-02-06T12:06:41.825Z,99015.63
2023-02-06T12:08:48.316Z,99008.88
2023-02-06T12:10:58.091Z,99002.84
2023-02-06T12:13:07.823Z,99002.13
2023-02-06T12:15:39.908Z,98998.59
2023-02-06T12:17:41.770Z,98997.75
2023-02-06T12:19:49.629Z,98997.69
2023-02-06T12:21:55.714Z,98988.16
2023-02-06T12:24:02.417Z,98983.06
2023-02-06T12:26:12.186Z,98978.75
2023-02-06T12:28:18.459Z,98979.66
2023-02-06T12:30:31.158Z,98966.78
2023-02-06T12:32:37.691Z,98970.25
2023-02-06T12:34:53.528Z,98977.09
2023-02-06T12:37:10.655Z,98979.66
2023-02-06T12:39:19.957Z,98978.72
2023-02-06T12:41:44.612Z,98974.44
2023-02-06T12:43:54.611Z,98982.06
2023-02-06T12:46:02.878Z,98989.81
2023-02-06T12:48:12.729Z,98986.41
2023-02-06T12:50:19.849Z,98992.53
2023-02-06T12:52:27.479Z,98991.63
2023-02-06T12:54:34.745Z,98994.13
2023-02-06T12:56:42.838Z,98990.72
2023-02-06T12:58:55.109Z,98983.84
2023-02-06T13:01:28.829Z,98980.41
2023-02-06T13:03:41.653Z,98976.09
2023-02-06T13:05:47.933Z,98978.75
2023-02-06T13:07:52.319Z,98974.44
2023-02-06T13:10:01.750Z,98966.75
2023-02-06T13:12:13.950Z,98968.59
2023-02-06T13:14:20.402Z,98965.78
2023-02-06T13:16:23.099Z,98965.03
2023-02-06T13:18:53.816Z,98962.38
2023-02-06T13:21:17.417Z,98950.34
2023-02-06T13:23:24.937Z,98941.75
2023-02-06T13:25:51.214Z,98951.22
2023-02-06T13:27:55.654Z,98950.44
2023-02-06T13:30:18.336Z,98945.97
2023-02-06T13:32:53.278Z,98952.91
2023-02-06T13:34:59.956Z,98952.06
2023-02-06T13:37:20.990Z,98960.63
2023-02-06T13:39:33.784Z,98964.03
2023-02-06T13:41:37.876Z,98966.50
2023-02-06T13:43:43.139Z,98950.25
2023-02-06T13:45:50.093Z,98949.41
2023-02-06T13:48:29.332Z,98944.25
2023-02-06T13:50:59.550Z,98945.94
2023-02-06T13:53:19.757Z,98953.69
2023-02-06T13:55:36.473Z,98960.56
2023-02-06T13:58:14.063Z,98960.53
2023-02-06T14:00:21.220Z,98947.56
2023-02-06T14:02:28.616Z,98949.34
2023-02-06T14:04:33.341Z,98948.44
2023-02-06T14:06:55.099Z,98952.72
2023-02-06T14:09:10.685Z,98956.88
2023-02-06T14:11:31.350Z,98960.34
2023-02-06T14:13:44.635Z,98951.78
2023-02-06T14:15:58.753Z,98950.94
2023-02-06T14:18:16.380Z,98960.47
2023-02-06T14:20:30.590Z,98962.22
2023-02-06T14:22:43.659Z,98961.19
2023-02-06T14:25:04.569Z,98961.31
2023-02-06T14:27:24.572Z,98957.81
2023-02-06T14:29:39.182Z,98955.09
2023-02-06T14:32:09.267Z,98948.22
2023-02-06T14:34:25.365Z,98951.72
2023-02-06T14:36:46.706Z,98949.13
2023-02-06T14:39:36.056Z,98949.13
2023-02-06T14:41:39.711Z,98956.00
2023-02-06T14:43:45.422Z,98961.97
2023-02-06T14:46:05.482Z,98968.06
2023-02-06T14:48:20.865Z,98974.84
2023-02-06T14:50:26.667Z,98977.47
2023-02-06T14:52:33.970Z,98975.72
2023-02-06T14:54:39.164Z,98975.81
2023-02-06T14:56:41.827Z,98970.63
2023-02-06T14:58:46.402Z,98971.50
2023-02-06T15:00:49.069Z,98961.13
2023-02-06T15:03:04.654Z,98957.78
2023-02-06T15:05:08.720Z,98953.41
2023-02-06T15:07:23.077Z,98955.94
2023-02-06T15:09:28.699Z,98962.03
2023-02-06T15:11:33.375Z,98958.53
2023-02-06T15:13:37.640Z,98949.13
2023-02-06T15:15:54.247Z,98963.66
2023-02-06T15:17:58.741Z,98966.31
2023-02-06T15:22:31.999Z,98957.75
2023-02-06T15:24:55.630Z,98957.66
2023-02-06T15:27:04.658Z,98950.88
2023-02-06T15:29:18.096Z,98956.00
2023-02-06T15:31:23.039Z,98955.19
2023-02-06T15:33:29.019Z,98947.44
2023-02-06T15:35:34.074Z,98937.13
2023-02-06T15:37:38.063Z,98936.22
2023-02-06T15:39:40.656Z,98938.88
2023-02-06T15:41:46.039Z,98943.09
2023-02-06T15:43:49.475Z,98949.94
2023-02-06T15:45:55.015Z,98949.97
2023-02-06T15:47:59.603Z,98949.13
2023-02-06T15:50:02.401Z,98945.69
2023-02-06T15:52:06.237Z,98945.63
2023-02-06T15:54:20.222Z,98964.56
2023-02-06T15:56:26.157Z,98967.19
2023-02-06T15:58:29.190Z,98966.28
2023-02-06T16:00:34.370Z,98957.63
2023-02-06T16:02:40.827Z,98959.38
2023-02-06T16:04:43.428Z,98964.53
2023-02-06T16:06:47.572Z,98972.19
2023-02-06T16:08:52.458Z,98979.13
2023-02-06T16:10:59.608Z,98965.34
2023-02-06T16:13:03.828Z,98968.75
2023-02-06T16:15:27.131Z,98963.59
2023-02-06T16:17:34.123Z,98963.59
2023-02-06T16:19:52.665Z,98961.84
2023-02-06T16:22:05.595Z,98973.88
2023-02-06T16:24:16.595Z,98973.88
2023-02-06T16:26:25.716Z,98973.81
2023-02-06T16:28:29.112Z,98971.22
2023-02-06T16:30:36.310Z,98958.34
2023-02-06T16:32:39.237Z,98960.88
2023-02-06T16:34:43.433Z,98974.63
2023-02-06T16:36:45.980Z,98965.97
2023-02-06T16:39:02.877Z,98963.47
2023-02-06T16:41:25.061Z,98967.69
2023-02-06T16:43:28.684Z,98971.19
2023-02-06T16:45:31.244Z,98964.31
2023-02-06T16:47:33.859Z,98971.19
2023-02-06T16:49:36.649Z,98970.38
2023-02-06T16:51:41.078Z,98978.13
2023-02-06T16:53:44.159Z,98979.84
2023-02-06T16:55:46.939Z,98970.38
2023-02-06T16:57:53.818Z,98976.38
2023-02-06T16:59:56.712Z,98972.94
2023-02-06T17:01:59.327Z,98972.97
2023-02-06T17:04:01.930Z,98961.78
2023-02-06T17:06:06.544Z,98957.50
2023-02-06T17:08:16.012Z,98959.19
2023-02-06T17:10:20.101Z,98963.41
2023-02-06T17:12:23.571Z,98952.97
2023-02-06T17:14:27.512Z,98942.56
2023-02-06T17:16:31.938Z,98938.25
2023-02-06T17:18:34.502Z,98927.84
2023-02-06T17:20:39.272Z,98942.50
2023-02-06T17:22:41.996Z,98943.25
2023-02-06T17:24:45.599Z,98938.03
2023-02-06T17:26:50.426Z,98933.69
2023-02-06T17:28:53.063Z,98937.16
2023-02-06T17:30:57.091Z,98938.91
2023-02-06T17:32:59.819Z,98937.16
2023-02-06T17:35:02.511Z,98931.97
2023-02-06T17:37:09.411Z,98929.44
2023-02-06T17:39:13.751Z,98926.88
2023-02-06T17:41:16.329Z,98931.13
2023-02-06T17:43:18.958Z,98931.06
2023-02-06T17:45:21.631Z,98930.25
2023-02-06T17:47:26.122Z,98931.13
2023-02-06T17:49:28.718Z,98937.16
2023-02-06T17:51:31.630Z,98940.53
2023-02-06T17:53:34.204Z,98937.06
2023-02-06T17:55:37.660Z,98936.19
2023-02-06T17:57:40.526Z,98936.19
2023-02-06T17:59:43.149Z,98938.69
2023-02-06T18:01:45.838Z,98937.84
2023-02-06T18:03:50.330Z,98941.31
2023-02-06T18:05:57.961Z,98943.88
2023-02-06T18:08:00.529Z,98937.88
2023-02-06T18:10:03.115Z,98939.59
2023-02-06T18:12:05.810Z,98930.13
2023-02-06T18:14:08.418Z,98932.66
2023-02-06T18:16:15.273Z,98930.91
2023-02-06T18:18:18.923Z,98930.78
2023-02-06T18:20:23.102Z,98923.91
2023-02-06T18:22:25.810Z,98919.56
2023-02-06T18:24:28.352Z,98916.97
2023-02-06T18:26:30.978Z,98915.25
2023-02-06T18:28:34.627Z,98911.78
2023-02-06T18:30:37.483Z,98913.47
2023-02-06T18:32:40.317Z,98922.97
2023-02-06T18:34:42.876Z,98920.44
2023-02-06T18:36:46.864Z,98921.41
2023-02-06T18:38:49.463Z,98921.41
2023-02-06T18:40:52.021Z,98919.69
2023-02-06T18:42:54.612Z,98920.66
2023-02-06T18:44:57.328Z,98916.31
2023-02-06T18:46:59.899Z,98920.59
2023-02-06T18:49:02.798Z,98922.25
2023-02-06T18:51:08.385Z,98919.59
2023-02-06T18:53:12.507Z,98923.03
2023-02-06T18:55:15.303Z,98926.50
2023-02-06T18:57:18.151Z,98922.16
2023-02-06T18:59:20.809Z,98921.31
2023-02-06T19:01:25.470Z,98909.31
2023-02-06T19:03:28.014Z,98915.34
2023-02-06T19:05:30.752Z,98909.41
2023-02-06T19:07:33.391Z,98908.59
2023-02-06T19:09:37.335Z,98912.88
2023-02-06T19:11:41.211Z,98901.75
2023-02-06T19:13:44.151Z,98903.47
2023-02-06T19:15:46.782Z,98911.28
2023-02-06T19:17:50.349Z,98901.81
2023-02-06T19:19:53.268Z,98903.50
2023-02-06T19:21:56.604Z,98904.34
2023-02-06T19:24:01.997Z,98900.06
2023-02-06T19:26:08.819Z,98894.91
2023-02-06T19:28:11.381Z,98898.28
2023-02-06T19:30:14.881Z,98897.47
2023-02-06T19:32:17.505Z,98898.34
2023-02-06T19:34:20.184Z,98898.31
2023-02-06T19:36:24.709Z,98889.75
2023-02-06T19:38:27.291Z,98894.03
2023-02-06T19:40:29.887Z,98892.31
2023-02-06T19:42:33.821Z,98894.09
2023-02-06T19:44:37.204Z,98897.50
2023-02-06T19:46:39.846Z,98890.69
2023-02-06T19:48:44.202Z,98900.13
2023-02-06T19:50:46.855Z,98898.47
2023-02-06T19:52:49.424Z,98895.84
2023-02-06T19:54:52.000Z,98895.84
2023-02-06T19:56:55.122Z,98900.16
2023-02-06T19:59:01.071Z,98893.28
2023-02-06T20:01:08.775Z,98895.75
2023-02-06T20:03:11.495Z,98900.88
2023-02-06T20:05:14.080Z,98900.03
2023-02-06T20:07:16.722Z,98907.75
2023-02-06T20:09:21.170Z,98905.16
2023-02-06T20:11:24.246Z,98903.41
2023-02-06T20:13:26.894Z,98905.19
2023-02-06T20:15:31.922Z,98908.63
2023-02-06T20:17:34.534Z,98900.84
2023-02-06T20:19:37.201Z,98901.72
2023-02-06T20:21:41.921Z,98895.63
2023-02-06T20:23:44.453Z,98895.63
2023-02-06T20:25:47.265Z,98901.72
2023-02-06T20:27:49.903Z,98896.44
2023-02-06T20:29:52.510Z,98892.09
2023-02-06T20:31:56.725Z,98895.44
2023-02-06T20:33:59.348Z,98895.38
2023-02-06T20:36:06.204Z,98896.25
2023-02-06T20:38:08.987Z,98898.72
2023-02-06T20:40:11.933Z,98885.84
2023-02-06T20:42:15.355Z,98883.25
2023-02-06T20:44:18.971Z,98884.88
2023-02-06T20:46:21.664Z,98876.31
2023-02-06T20:48:26.099Z,98886.50
2023-02-06T20:50:30.084Z,98894.16
2023-02-06T20:52:33.069Z,98892.47
2023-02-06T20:54:35.669Z,98889.97
2023-02-06T20:56:38.680Z,98887.34
2023-02-06T20:58:41.255Z,98893.38
2023-02-06T21:00:43.838Z,98892.50
2023-02-06T21:02:46.854Z,98890.81
2023-02-06T21:04:52.274Z,98896.00
2023-02-06T21:06:55.445Z,98889.06
2023-02-06T21:09:00.199Z,98896.00
2023-02-06T21:11:03.357Z,98893.38
2023-02-06T21:13:05.895Z,98892.50
2023-02-06T21:15:09.443Z,98883.88
2023-02-06T21:17:12.047Z,98878.72
2023-02-06T21:19:20.650Z,98877.19
2023-02-06T21:21:25.507Z,98874.53
2023-02-06T21:23:28.171Z,98867.75
2023-02-06T21:25:30.732Z,98868.50
2023-02-06T21:27:33.597Z,98865.91
2023-02-06T21:29:36.208Z,98857.28
2023-02-06T21:31:39.158Z,98861.69
2023-02-06T21:33:41.976Z,98865.00
2023-02-06T21:35:50.845Z,98853.09
2023-02-06T21:37:54.897Z,98856.50
2023-02-06T21:39:57.457Z,98856.34
2023-02-06T21:42:01.586Z,98861.56
2023-02-06T21:44:04.431Z,98852.97
2023-02-06T21:46:07.662Z,98847.00
2023-02-06T21:48:10.284Z,98858.13
2023-02-06T21:50:12.850Z,98859.94
2023-02-06T21:52:15.414Z,98874.56
2023-02-06T21:54:19.732Z,98876.25
2023-02-06T21:56:24.755Z,98877.09
2023-02-06T21:58:27.337Z,98872.81
2023-02-06T22:00:29.998Z,98877.09
2023-02-06T22:02:35.146Z,98872.88
2023-02-06T22:04:37.775Z,98873.75
2023-02-06T22:06:40.819Z,98874.84
2023-02-06T22:08:47.932Z,98879.19
2023-02-06T22:10:51.904Z,98870.28
2023-02-06T22:12:55.274Z,98873.66
2023-02-06T22:14:57.901Z,98876.13
2023-02-06T22:17:00.456Z,98873.56
2023-02-06T22:19:03.377Z,98861.50
2023-02-06T22:21:07.888Z,98850.28
2023-02-06T22:23:10.506Z,98849.34
2023-02-06T22:25:13.141Z,98845.06
2023-02-06T22:27:17.391Z,98846.69
2023-02-06T22:29:20.050Z,98842.41
2023-02-06T22:31:25.523Z,98852.72
2023-02-06T22:33:28.140Z,98844.13
2023-02-06T22:35:30.736Z,98855.25
2023-02-06T22:37:34.305Z,98850.88
2023-02-06T22:39:36.929Z,98853.47
2023-02-06T22:41:40.712Z,98862.03
2023-02-06T22:43:46.365Z,98864.53
2023-02-06T22:45:50.534Z,98861.09
2023-02-06T22:47:53.188Z,98855.81
2023-02-06T22:49:55.815Z,98862.66
2023-02-06T22:51:58.773Z,98854.88
2023-02-06T22:54:00.633Z,98861.72
2023-02-06T22:56:23.410Z,98853.97
2023-02-06T22:58:26.166Z,98853.13
2023-02-06T23:00:30.198Z,98850.53
2023-02-06T23:02:32.838Z,98850.47
2023-02-06T23:04:36.232Z,98848.69
2023-02-06T23:06:38.833Z,98852.09
2023-02-06T23:08:42.502Z,98852.91
2023-02-06T23:10:47.362Z,98856.28
2023-02-06T23:12:49.950Z,98853.53
2023-02-06T23:14:52.589Z,98854.34
2023-02-06T23:16:57.033Z,98862.81
2023-02-06T23:19:01.760Z,98873.75
2023-02-06T23:21:07.602Z,98882.25
2023-02-06T23:23:10.196Z,98882.28
2023-02-06T23:25:12.788Z,98884.03
2023-02-06T23:27:15.422Z,98894.25
2023-02-06T23:29:19.149Z,98895.97
2023-02-06T23:31:21.714Z,98896.00
2023-02-06T23:33:25.781Z,98901.94
2023-02-06T23:35:28.306Z,98899.31
2023-02-06T23:37:30.896Z,98898.25
2023-02-06T23:39:35.586Z,98899.19
2023-02-06T23:41:38.167Z,98905.13
2023-02-06T23:43:41.171Z,98911.91
2023-02-06T23:45:43.759Z,98915.19
2023-02-06T23:47:46.679Z,98919.59
2023-02-06T23:49:50.609Z,98929.78
2023-02-06T23:51:53.148Z,98928.88
2023-02-06T23:53:55.775Z,98937.44
2023-02-06T23:55:58.612Z,98937.25
2023-02-06T23:58:01.184Z,98938.97
